sensor_id;sensor_type;location;lat;lon;timestamp;temperature;humidity
74359;DHT22;62792;46.236;6.040;2023-03-03T00:02:58;23.70;30.40
74359;DHT22;62792;46.236;6.040;2023-03-03T00:08:05;23.80;30.80
74359;DHT22;62792;46.236;6.040;2023-03-03T00:13:12;23.80;30.70
74359;DHT22;62792;46.236;6.040;2023-03-03T00:18:20;23.80;30.30
74359;DHT22;62792;46.236;6.040;2023-03-03T00:23:30;23.80;30.40
74359;DHT22;62792;46.236;6.040;2023-03-03T00:28:40;23.70;30.40
74359;DHT22;62792;46.236;6.040;2023-03-03T00:33:47;23.70;30.40
74359;DHT22;62792;46.236;6.040;2023-03-03T00:38:58;23.70;30.30
74359;DHT22;62792;46.236;6.040;2023-03-03T00:44:02;23.70;30.30
74359;DHT22;62792;46.236;6.040;2023-03-03T00:49:32;23.70;30.40
74359;DHT22;62792;46.236;6.040;2023-03-03T00:54:38;23.70;30.30
74359;DHT22;62792;46.236;6.040;2023-03-03T00:59:44;23.70;30.40
74359;DHT22;62792;46.236;6.040;2023-03-03T01:04:50;23.70;30.20
74359;DHT22;62792;46.236;6.040;2023-03-03T01:09:55;23.70;30.30
74359;DHT22;62792;46.236;6.040;2023-03-03T01:14:57;23.60;30.40
74359;DHT22;62792;46.236;6.040;2023-03-03T01:20:00;23.70;30.20
74359;DHT22;62792;46.236;6.040;2023-03-03T01:25:05;23.70;30.30
74359;DHT22;62792;46.236;6.040;2023-03-03T01:30:09;23.70;30.10
74359;DHT22;62792;46.236;6.040;2023-03-03T01:35:12;23.70;30.00
74359;DHT22;62792;46.236;6.040;2023-03-03T01:40:18;23.70;30.10
74359;DHT22;62792;46.236;6.040;2023-03-03T01:45:22;23.70;30.10
74359;DHT22;62792;46.236;6.040;2023-03-03T01:50:27;23.60;30.80
74359;DHT22;62792;46.236;6.040;2023-03-03T01:55:36;23.60;30.00
74359;DHT22;62792;46.236;6.040;2023-03-03T02:00:42;23.60;30.30
74359;DHT22;62792;46.236;6.040;2023-03-03T02:05:46;23.60;30.90
74359;DHT22;62792;46.236;6.040;2023-03-03T02:10:52;23.50;30.80
74359;DHT22;62792;46.236;6.040;2023-03-03T02:15:57;23.60;30.80
74359;DHT22;62792;46.236;6.040;2023-03-03T02:21:01;23.60;30.80
74359;DHT22;62792;46.236;6.040;2023-03-03T02:26:09;23.70;30.10
74359;DHT22;62792;46.236;6.040;2023-03-03T02:31:15;23.70;30.00
74359;DHT22;62792;46.236;6.040;2023-03-03T02:36:20;23.60;30.00
74359;DHT22;62792;46.236;6.040;2023-03-03T02:41:27;23.60;30.80
74359;DHT22;62792;46.236;6.040;2023-03-03T02:46:33;23.50;30.80
74359;DHT22;62792;46.236;6.040;2023-03-03T02:51:36;23.50;30.70
74359;DHT22;62792;46.236;6.040;2023-03-03T02:56:41;23.50;30.60
74359;DHT22;62792;46.236;6.040;2023-03-03T03:01:44;23.60;30.70
74359;DHT22;62792;46.236;6.040;2023-03-03T03:06:48;23.50;30.60
74359;DHT22;62792;46.236;6.040;2023-03-03T03:11:53;23.50;30.40
74359;DHT22;62792;46.236;6.040;2023-03-03T03:16:55;23.50;30.30
74359;DHT22;62792;46.236;6.040;2023-03-03T03:21:58;23.50;30.40
74359;DHT22;62792;46.236;6.040;2023-03-03T03:27:03;23.50;30.40
74359;DHT22;62792;46.236;6.040;2023-03-03T03:32:05;23.60;30.50
74359;DHT22;62792;46.236;6.040;2023-03-03T03:37:08;23.40;30.50
74359;DHT22;62792;46.236;6.040;2023-03-03T03:42:13;23.50;30.50
74359;DHT22;62792;46.236;6.040;2023-03-03T03:47:15;23.40;30.60
74359;DHT22;62792;46.236;6.040;2023-03-03T03:52:18;23.50;30.40
74359;DHT22;62792;46.236;6.040;2023-03-03T03:57:22;23.50;30.30
74359;DHT22;62792;46.236;6.040;2023-03-03T04:02:27;23.50;30.40
74359;DHT22;62792;46.236;6.040;2023-03-03T04:07:30;23.40;30.30
74359;DHT22;62792;46.236;6.040;2023-03-03T04:12:34;23.50;30.40
74359;DHT22;62792;46.236;6.040;2023-03-03T04:17:39;23.40;30.30
74359;DHT22;62792;46.236;6.040;2023-03-03T04:22:42;23.40;30.50
74359;DHT22;62792;46.236;6.040;2023-03-03T04:27:47;23.40;30.40
74359;DHT22;62792;46.236;6.040;2023-03-03T04:32:50;23.40;30.40
74359;DHT22;62792;46.236;6.040;2023-03-03T04:37:53;23.40;30.40
74359;DHT22;62792;46.236;6.040;2023-03-03T04:42:58;23.40;30.20
74359;DHT22;62792;46.236;6.040;2023-03-03T04:48:01;23.40;30.10
74359;DHT22;62792;46.236;6.040;2023-03-03T04:53:03;23.40;30.20
74359;DHT22;62792;46.236;6.040;2023-03-03T04:58:08;23.40;30.20
74359;DHT22;62792;46.236;6.040;2023-03-03T05:03:11;23.30;30.10
74359;DHT22;62792;46.236;6.040;2023-03-03T05:08:14;23.40;30.20
74359;DHT22;62792;46.236;6.040;2023-03-03T05:13:19;23.40;30.10
74359;DHT22;62792;46.236;6.040;2023-03-03T05:18:23;23.40;30.30
74359;DHT22;62792;46.236;6.040;2023-03-03T05:23:26;23.40;30.20
74359;DHT22;62792;46.236;6.040;2023-03-03T05:28:30;23.40;30.30
74359;DHT22;62792;46.236;6.040;2023-03-03T05:33:34;23.30;30.20
74359;DHT22;62792;46.236;6.040;2023-03-03T05:38:37;23.40;30.10
74359;DHT22;62792;46.236;6.040;2023-03-03T05:43:41;23.40;30.10
74359;DHT22;62792;46.236;6.040;2023-03-03T05:48:45;23.30;30.20
74359;DHT22;62792;46.236;6.040;2023-03-03T05:53:48;23.30;30.00
74359;DHT22;62792;46.236;6.040;2023-03-03T05:58:53;23.40;30.10
74359;DHT22;62792;46.236;6.040;2023-03-03T06:03:56;23.40;30.10
74359;DHT22;62792;46.236;6.040;2023-03-03T06:08:59;23.40;30.00
74359;DHT22;62792;46.236;6.040;2023-03-03T06:14:03;23.40;30.00
74359;DHT22;62792;46.236;6.040;2023-03-03T06:19:06;23.30;29.90
74359;DHT22;62792;46.236;6.040;2023-03-03T06:24:09;23.30;30.20
74359;DHT22;62792;46.236;6.040;2023-03-03T06:29:14;23.30;29.90
74359;DHT22;62792;46.236;6.040;2023-03-03T06:34:16;23.30;29.90
74359;DHT22;62792;46.236;6.040;2023-03-03T06:39:19;23.40;30.00
74359;DHT22;62792;46.236;6.040;2023-03-03T06:44:24;23.30;30.00
74359;DHT22;62792;46.236;6.040;2023-03-03T06:49:29;23.30;30.00
74359;DHT22;62792;46.236;6.040;2023-03-03T06:54:32;23.30;30.10
74359;DHT22;62792;46.236;6.040;2023-03-03T06:59:49;23.30;29.90
74359;DHT22;62792;46.236;6.040;2023-03-03T07:04:55;23.30;29.90
74359;DHT22;62792;46.236;6.040;2023-03-03T07:09:58;23.40;29.90
74359;DHT22;62792;46.236;6.040;2023-03-03T07:15:12;23.40;29.80
74359;DHT22;62792;46.236;6.040;2023-03-03T07:20:18;23.30;30.00
74359;DHT22;62792;46.236;6.040;2023-03-03T07:25:25;23.40;29.80
74359;DHT22;62792;46.236;6.040;2023-03-03T07:30:31;23.40;29.90
74359;DHT22;62792;46.236;6.040;2023-03-03T07:35:35;23.40;29.70
74359;DHT22;62792;46.236;6.040;2023-03-03T07:40:40;23.50;29.70
74359;DHT22;62792;46.236;6.040;2023-03-03T07:45:49;23.50;29.90
74359;DHT22;62792;46.236;6.040;2023-03-03T07:50:52;23.50;29.80
74359;DHT22;62792;46.236;6.040;2023-03-03T07:55:55;23.40;29.90
74359;DHT22;62792;46.236;6.040;2023-03-03T08:06:40;23.50;30.10
74359;DHT22;62792;46.236;6.040;2023-03-03T08:11:46;23.40;30.10
74359;DHT22;62792;46.236;6.040;2023-03-03T08:16:54;23.50;30.10
74359;DHT22;62792;46.236;6.040;2023-03-03T08:22:00;23.40;30.10
74359;DHT22;62792;46.236;6.040;2023-03-03T08:27:05;23.50;30.00
74359;DHT22;62792;46.236;6.040;2023-03-03T08:32:07;23.60;30.10
74359;DHT22;62792;46.236;6.040;2023-03-03T08:37:12;23.50;30.10
74359;DHT22;62792;46.236;6.040;2023-03-03T08:42:15;23.60;29.40
74359;DHT22;62792;46.236;6.040;2023-03-03T08:47:18;23.60;30.20
74359;DHT22;62792;46.236;6.040;2023-03-03T08:52:23;23.70;29.60
74359;DHT22;62792;46.236;6.040;2023-03-03T08:57:27;23.70;29.50
74359;DHT22;62792;46.236;6.040;2023-03-03T09:02:30;23.70;29.60
74359;DHT22;62792;46.236;6.040;2023-03-03T09:07:34;23.70;29.70
74359;DHT22;62792;46.236;6.040;2023-03-03T09:12:37;23.70;29.70
74359;DHT22;62792;46.236;6.040;2023-03-03T09:17:41;23.80;29.70
74359;DHT22;62792;46.236;6.040;2023-03-03T09:22:46;23.80;29.90
74359;DHT22;62792;46.236;6.040;2023-03-03T09:27:51;23.90;29.80
74359;DHT22;62792;46.236;6.040;2023-03-03T09:32:55;24.00;29.80
74359;DHT22;62792;46.236;6.040;2023-03-03T09:38:00;23.90;29.80
74359;DHT22;62792;46.236;6.040;2023-03-03T09:43:04;23.80;29.80
74359;DHT22;62792;46.236;6.040;2023-03-03T09:48:16;24.00;29.80
74359;DHT22;62792;46.236;6.040;2023-03-03T09:53:36;24.00;30.10
74359;DHT22;62792;46.236;6.040;2023-03-03T09:58:52;24.00;29.90
74359;DHT22;62792;46.236;6.040;2023-03-03T10:04:10;24.00;30.10
74359;DHT22;62792;46.236;6.040;2023-03-03T10:09:33;23.90;30.20
74359;DHT22;62792;46.236;6.040;2023-03-03T10:14:46;24.00;30.00
74359;DHT22;62792;46.236;6.040;2023-03-03T10:20:02;24.00;30.10
74359;DHT22;62792;46.236;6.040;2023-03-03T10:25:15;24.00;30.40
74359;DHT22;62792;46.236;6.040;2023-03-03T10:30:24;24.10;30.30
74359;DHT22;62792;46.236;6.040;2023-03-03T10:35:46;24.10;30.30
74359;DHT22;62792;46.236;6.040;2023-03-03T10:41:13;24.10;30.20
74359;DHT22;62792;46.236;6.040;2023-03-03T10:46:31;24.00;30.30
74359;DHT22;62792;46.236;6.040;2023-03-03T10:51:45;24.00;30.40
74359;DHT22;62792;46.236;6.040;2023-03-03T10:56:59;24.10;30.50
74359;DHT22;62792;46.236;6.040;2023-03-03T11:02:06;24.20;30.40
74359;DHT22;62792;46.236;6.040;2023-03-03T11:07:15;24.10;30.50
74359;DHT22;62792;46.236;6.040;2023-03-03T11:12:26;24.20;30.40
74359;DHT22;62792;46.236;6.040;2023-03-03T11:17:34;24.20;30.40
74359;DHT22;62792;46.236;6.040;2023-03-03T11:22:49;24.10;30.50
74359;DHT22;62792;46.236;6.040;2023-03-03T11:28:10;24.20;30.30
74359;DHT22;62792;46.236;6.040;2023-03-03T11:33:25;24.20;30.60
74359;DHT22;62792;46.236;6.040;2023-03-03T11:38:53;24.20;30.50
74359;DHT22;62792;46.236;6.040;2023-03-03T11:44:03;24.20;30.60
74359;DHT22;62792;46.236;6.040;2023-03-03T11:49:13;24.30;30.60
74359;DHT22;62792;46.236;6.040;2023-03-03T11:54:20;24.20;30.50
74359;DHT22;62792;46.236;6.040;2023-03-03T11:59:36;24.30;30.70
74359;DHT22;62792;46.236;6.040;2023-03-03T12:04:45;24.30;30.70
74359;DHT22;62792;46.236;6.040;2023-03-03T12:09:54;24.30;30.60
74359;DHT22;62792;46.236;6.040;2023-03-03T12:15:09;24.20;30.60
74359;DHT22;62792;46.236;6.040;2023-03-03T12:20:21;24.30;30.70
74359;DHT22;62792;46.236;6.040;2023-03-03T12:25:30;24.30;30.60
74359;DHT22;62792;46.236;6.040;2023-03-03T12:30:43;24.30;30.70
74359;DHT22;62792;46.236;6.040;2023-03-03T12:36:00;24.30;30.80
74359;DHT22;62792;46.236;6.040;2023-03-03T12:41:09;24.30;31.00
74359;DHT22;62792;46.236;6.040;2023-03-03T12:46:20;24.30;30.90
74359;DHT22;62792;46.236;6.040;2023-03-03T12:51:35;24.30;30.90
74359;DHT22;62792;46.236;6.040;2023-03-03T12:56:44;24.30;30.80
74359;DHT22;62792;46.236;6.040;2023-03-03T13:02:01;24.30;30.90
74359;DHT22;62792;46.236;6.040;2023-03-03T13:07:18;24.40;30.80
74359;DHT22;62792;46.236;6.040;2023-03-03T13:12:29;24.30;30.90
74359;DHT22;62792;46.236;6.040;2023-03-03T13:17:37;24.40;31.00
74359;DHT22;62792;46.236;6.040;2023-03-03T13:22:45;24.30;30.80
74359;DHT22;62792;46.236;6.040;2023-03-03T13:27:54;24.30;30.80
74359;DHT22;62792;46.236;6.040;2023-03-03T13:33:02;24.30;30.90
74359;DHT22;62792;46.236;6.040;2023-03-03T13:38:12;24.30;30.90
74359;DHT22;62792;46.236;6.040;2023-03-03T13:43:16;24.30;31.00
74359;DHT22;62792;46.236;6.040;2023-03-03T13:48:26;24.20;31.10
74359;DHT22;62792;46.236;6.040;2023-03-03T13:53:38;24.20;31.10
74359;DHT22;62792;46.236;6.040;2023-03-03T13:58:47;24.20;31.00
74359;DHT22;62792;46.236;6.040;2023-03-03T14:04:00;24.30;31.10
74359;DHT22;62792;46.236;6.040;2023-03-03T14:09:08;24.30;31.10
74359;DHT22;62792;46.236;6.040;2023-03-03T14:14:19;24.30;31.00
74359;DHT22;62792;46.236;6.040;2023-03-03T14:19:33;24.20;31.10
74359;DHT22;62792;46.236;6.040;2023-03-03T14:24:55;24.30;31.00
74359;DHT22;62792;46.236;6.040;2023-03-03T14:35:32;24.30;31.20
74359;DHT22;62792;46.236;6.040;2023-03-03T14:40:37;24.30;31.20
74359;DHT22;62792;46.236;6.040;2023-03-03T14:45:43;24.30;31.10
74359;DHT22;62792;46.236;6.040;2023-03-03T14:50:49;24.30;31.20
74359;DHT22;62792;46.236;6.040;2023-03-03T14:55:53;24.20;31.30
74359;DHT22;62792;46.236;6.040;2023-03-03T15:01:06;24.30;31.30
74359;DHT22;62792;46.236;6.040;2023-03-03T15:06:28;24.20;31.30
74359;DHT22;62792;46.236;6.040;2023-03-03T15:11:38;24.30;31.30
74359;DHT22;62792;46.236;6.040;2023-03-03T15:16:41;24.30;31.30
74359;DHT22;62792;46.236;6.040;2023-03-03T15:21:49;24.20;31.30
74359;DHT22;62792;46.236;6.040;2023-03-03T15:26:59;24.30;31.20
74359;DHT22;62792;46.236;6.040;2023-03-03T15:32:05;24.40;31.30
74359;DHT22;62792;46.236;6.040;2023-03-03T15:37:22;24.40;31.20
74359;DHT22;62792;46.236;6.040;2023-03-03T15:42:33;24.30;31.30
74359;DHT22;62792;46.236;6.040;2023-03-03T15:47:43;24.30;31.20
74359;DHT22;62792;46.236;6.040;2023-03-03T15:52:59;24.30;31.40
74359;DHT22;62792;46.236;6.040;2023-03-03T15:58:13;24.50;31.20
74359;DHT22;62792;46.236;6.040;2023-03-03T16:03:34;24.60;31.20
74359;DHT22;62792;46.236;6.040;2023-03-03T16:08:43;24.70;31.10
74359;DHT22;62792;46.236;6.040;2023-03-03T16:13:52;24.80;31.00
74359;DHT22;62792;46.236;6.040;2023-03-03T16:19:05;24.70;31.10
74359;DHT22;62792;46.236;6.040;2023-03-03T16:24:17;24.60;31.10
74359;DHT22;62792;46.236;6.040;2023-03-03T16:29:34;24.60;31.20
74359;DHT22;62792;46.236;6.040;2023-03-03T16:34:46;24.50;31.20
74359;DHT22;62792;46.236;6.040;2023-03-03T16:40:01;24.40;31.40
74359;DHT22;62792;46.236;6.040;2023-03-03T16:45:17;24.40;31.40
74359;DHT22;62792;46.236;6.040;2023-03-03T16:50:25;24.30;31.40
74359;DHT22;62792;46.236;6.040;2023-03-03T16:55:31;24.30;31.70
74359;DHT22;62792;46.236;6.040;2023-03-03T17:00:39;24.30;31.60
74359;DHT22;62792;46.236;6.040;2023-03-03T17:05:46;24.20;31.50
74359;DHT22;62792;46.236;6.040;2023-03-03T17:10:54;24.20;31.60
74359;DHT22;62792;46.236;6.040;2023-03-03T17:16:01;24.20;31.80
74359;DHT22;62792;46.236;6.040;2023-03-03T17:21:17;24.20;31.80
74359;DHT22;62792;46.236;6.040;2023-03-03T17:26:32;24.10;31.90
74359;DHT22;62792;46.236;6.040;2023-03-03T17:31:40;24.10;31.80
74359;DHT22;62792;46.236;6.040;2023-03-03T17:36:49;24.00;32.00
74359;DHT22;62792;46.236;6.040;2023-03-03T17:42:00;23.90;32.00
74359;DHT22;62792;46.236;6.040;2023-03-03T17:47:07;23.90;32.10
74359;DHT22;62792;46.236;6.040;2023-03-03T17:52:20;24.00;32.10
74359;DHT22;62792;46.236;6.040;2023-03-03T17:57:33;24.00;32.10
74359;DHT22;62792;46.236;6.040;2023-03-03T18:02:55;24.00;32.00
74359;DHT22;62792;46.236;6.040;2023-03-03T18:08:27;24.00;32.10
74359;DHT22;62792;46.236;6.040;2023-03-03T18:13:45;23.90;31.90
74359;DHT22;62792;46.236;6.040;2023-03-03T18:19:11;23.90;32.00
74359;DHT22;62792;46.236;6.040;2023-03-03T18:24:27;23.90;32.00
74359;DHT22;62792;46.236;6.040;2023-03-03T18:29:42;23.90;32.00
74359;DHT22;62792;46.236;6.040;2023-03-03T18:35:36;23.90;32.10
74359;DHT22;62792;46.236;6.040;2023-03-03T18:40:47;24.00;32.20
74359;DHT22;62792;46.236;6.040;2023-03-03T18:45:53;23.90;32.20
74359;DHT22;62792;46.236;6.040;2023-03-03T18:50:57;23.90;32.20
74359;DHT22;62792;46.236;6.040;2023-03-03T18:56:00;23.80;32.10
74359;DHT22;62792;46.236;6.040;2023-03-03T19:01:13;23.90;32.00
74359;DHT22;62792;46.236;6.040;2023-03-03T19:12:13;23.90;32.10
74359;DHT22;62792;46.236;6.040;2023-03-03T19:22:49;23.70;32.00
74359;DHT22;62792;46.236;6.040;2023-03-03T19:27:57;23.80;32.30
74359;DHT22;62792;46.236;6.040;2023-03-03T19:33:19;23.70;32.10
74359;DHT22;62792;46.236;6.040;2023-03-03T19:38:30;23.70;32.20
74359;DHT22;62792;46.236;6.040;2023-03-03T19:43:39;23.70;32.30
74359;DHT22;62792;46.236;6.040;2023-03-03T19:48:52;23.80;32.20
74359;DHT22;62792;46.236;6.040;2023-03-03T19:53:59;23.70;32.30
74359;DHT22;62792;46.236;6.040;2023-03-03T19:59:11;23.70;32.30
74359;DHT22;62792;46.236;6.040;2023-03-03T20:04:33;23.80;32.10
74359;DHT22;62792;46.236;6.040;2023-03-03T20:09:44;23.80;32.40
74359;DHT22;62792;46.236;6.040;2023-03-03T20:14:50;23.80;32.20
74359;DHT22;62792;46.236;6.040;2023-03-03T20:20:00;23.70;32.40
74359;DHT22;62792;46.236;6.040;2023-03-03T20:25:09;23.80;32.30
74359;DHT22;62792;46.236;6.040;2023-03-03T20:30:18;23.80;32.40
74359;DHT22;62792;46.236;6.040;2023-03-03T20:35:33;23.80;32.40
74359;DHT22;62792;46.236;6.040;2023-03-03T20:40:42;23.80;32.10
74359;DHT22;62792;46.236;6.040;2023-03-03T20:45:52;23.80;32.30
74359;DHT22;62792;46.236;6.040;2023-03-03T20:51:03;23.80;32.20
74359;DHT22;62792;46.236;6.040;2023-03-03T20:56:09;23.80;32.40
74359;DHT22;62792;46.236;6.040;2023-03-03T21:01:18;23.80;32.20
74359;DHT22;62792;46.236;6.040;2023-03-03T21:06:36;23.80;32.30
74359;DHT22;62792;46.236;6.040;2023-03-03T21:11:41;23.80;32.50
74359;DHT22;62792;46.236;6.040;2023-03-03T21:16:45;23.80;32.50
74359;DHT22;62792;46.236;6.040;2023-03-03T21:21:50;23.80;32.40
74359;DHT22;62792;46.236;6.040;2023-03-03T21:26:54;23.80;32.40
74359;DHT22;62792;46.236;6.040;2023-03-03T21:31:59;23.80;32.30
74359;DHT22;62792;46.236;6.040;2023-03-03T21:37:06;23.80;32.10
74359;DHT22;62792;46.236;6.040;2023-03-03T21:42:10;23.80;32.30
74359;DHT22;62792;46.236;6.040;2023-03-03T21:47:15;23.80;32.50
74359;DHT22;62792;46.236;6.040;2023-03-03T21:52:20;23.80;32.40
74359;DHT22;62792;46.236;6.040;2023-03-03T21:57:24;23.70;32.50
74359;DHT22;62792;46.236;6.040;2023-03-03T22:02:27;23.80;32.40
74359;DHT22;62792;46.236;6.040;2023-03-03T22:07:31;23.80;32.50
74359;DHT22;62792;46.236;6.040;2023-03-03T22:12:34;23.90;32.50
74359;DHT22;62792;46.236;6.040;2023-03-03T22:17:36;23.70;32.40
74359;DHT22;62792;46.236;6.040;2023-03-03T22:22:42;23.80;32.50
74359;DHT22;62792;46.236;6.040;2023-03-03T22:27:45;23.90;32.60
74359;DHT22;62792;46.236;6.040;2023-03-03T22:32:48;23.90;32.30
74359;DHT22;62792;46.236;6.040;2023-03-03T22:37:54;23.80;32.30
74359;DHT22;62792;46.236;6.040;2023-03-03T22:42:56;23.90;32.40
74359;DHT22;62792;46.236;6.040;2023-03-03T22:47:59;23.70;32.40
74359;DHT22;62792;46.236;6.040;2023-03-03T22:53:04;23.70;32.40
74359;DHT22;62792;46.236;6.040;2023-03-03T22:58:07;23.70;32.50
74359;DHT22;62792;46.236;6.040;2023-03-03T23:03:10;23.60;32.60
74359;DHT22;62792;46.236;6.040;2023-03-03T23:08:15;23.70;32.60
74359;DHT22;62792;46.236;6.040;2023-03-03T23:13:18;23.80;32.50
74359;DHT22;62792;46.236;6.040;2023-03-03T23:18:21;23.80;32.60
74359;DHT22;62792;46.236;6.040;2023-03-03T23:23:25;23.80;32.40
74359;DHT22;62792;46.236;6.040;2023-03-03T23:28:30;23.80;32.50
74359;DHT22;62792;46.236;6.040;2023-03-03T23:33:32;23.80;32.30
74359;DHT22;62792;46.236;6.040;2023-03-03T23:38:37;23.80;32.40
74359;DHT22;62792;46.236;6.040;2023-03-03T23:43:43;23.90;32.40
74359;DHT22;62792;46.236;6.040;2023-03-03T23:48:46;23.80;32.50
74359;DHT22;62792;46.236;6.040;2023-03-03T23:53:50;23.80;32.60
74359;DHT22;62792;46.236;6.040;2023-03-03T23:58:53;23.70;32.50
